sensor_id;sensor_type;location;lat;lon;timestamp;P1;durP1;ratioP1;P2;durP2;ratioP2
63567;SDS011;49715;42.386;20.434;2023-01-10T00:00:12;1.17;;;0.90;;
63567;SDS011;49715;42.386;20.434;2023-01-10T00:02:38;1.20;;;0.60;;
63567;SDS011;49715;42.386;20.434;2023-01-10T00:05:05;0.77;;;0.70;;
63567;SDS011;49715;42.386;20.434;2023-01-10T00:07:31;1.10;;;0.75;;
63567;SDS011;49715;42.386;20.434;2023-01-10T00:09:58;2.38;;;1.00;;
63567;SDS011;49715;42.386;20.434;2023-01-10T00:12:24;4.25;;;1.40;;
63567;SDS011;49715;42.386;20.434;2023-01-10T00:15:09;1.58;;;1.20;;
63567;SDS011;49715;42.386;20.434;2023-01-10T00:17:36;2.72;;;1.70;;
63567;SDS011;49715;42.386;20.434;2023-01-10T00:20:02;1.42;;;1.00;;
63567;SDS011;49715;42.386;20.434;2023-01-10T00:22:29;0.85;;;0.60;;
63567;SDS011;49715;42.386;20.434;2023-01-10T00:24:55;0.98;;;0.70;;
63567;SDS011;49715;42.386;20.434;2023-01-10T00:27:22;1.65;;;1.20;;
63567;SDS011;49715;42.386;20.434;2023-01-10T00:29:48;1.27;;;0.80;;
63567;SDS011;49715;42.386;20.434;2023-01-10T00:32:19;0.88;;;0.65;;
63567;SDS011;49715;42.386;20.434;2023-01-10T00:34:46;2.10;;;1.15;;
63567;SDS011;49715;42.386;20.434;2023-01-10T00:37:13;1.77;;;0.93;;
63567;SDS011;49715;42.386;20.434;2023-01-10T00:39:39;2.05;;;1.10;;
63567;SDS011;49715;42.386;20.434;2023-01-10T00:42:06;2.90;;;1.20;;
63567;SDS011;49715;42.386;20.434;2023-01-10T00:44:50;3.33;;;1.88;;
63567;SDS011;49715;42.386;20.434;2023-01-10T00:47:17;3.35;;;2.22;;
63567;SDS011;49715;42.386;20.434;2023-01-10T00:49:43;4.95;;;2.10;;
63567;SDS011;49715;42.386;20.434;2023-01-10T00:52:10;2.70;;;1.48;;
63567;SDS011;49715;42.386;20.434;2023-01-10T00:54:36;4.38;;;1.60;;
63567;SDS011;49715;42.386;20.434;2023-01-10T00:57:03;2.05;;;1.42;;
63567;SDS011;49715;42.386;20.434;2023-01-10T00:59:29;2.17;;;1.48;;
63567;SDS011;49715;42.386;20.434;2023-01-10T01:01:56;2.03;;;1.10;;
63567;SDS011;49715;42.386;20.434;2023-01-10T01:04:22;1.55;;;1.00;;
63567;SDS011;49715;42.386;20.434;2023-01-10T01:06:49;0.95;;;0.65;;
63567;SDS011;49715;42.386;20.434;2023-01-10T01:09:15;0.93;;;0.30;;
63567;SDS011;49715;42.386;20.434;2023-01-10T01:11:42;1.50;;;0.90;;
63567;SDS011;49715;42.386;20.434;2023-01-10T01:14:08;0.60;;;0.50;;
63567;SDS011;49715;42.386;20.434;2023-01-10T01:16:34;0.83;;;0.50;;
63567;SDS011;49715;42.386;20.434;2023-01-10T01:19:01;0.77;;;0.37;;
63567;SDS011;49715;42.386;20.434;2023-01-10T01:21:27;0.83;;;0.30;;
63567;SDS011;49715;42.386;20.434;2023-01-10T01:23:54;1.05;;;0.40;;
63567;SDS011;49715;42.386;20.434;2023-01-10T01:26:23;1.00;;;0.57;;
63567;SDS011;49715;42.386;20.434;2023-01-10T01:28:51;0.47;;;0.40;;
63567;SDS011;49715;42.386;20.434;2023-01-10T01:31:17;0.85;;;0.57;;
63567;SDS011;49715;42.386;20.434;2023-01-10T01:33:43;3.83;;;2.00;;
63567;SDS011;49715;42.386;20.434;2023-01-10T01:36:11;2.75;;;1.73;;
63567;SDS011;49715;42.386;20.434;2023-01-10T01:41:05;1.90;;;0.70;;
63567;SDS011;49715;42.386;20.434;2023-01-10T01:43:57;1.10;;;0.50;;
63567;SDS011;49715;42.386;20.434;2023-01-10T01:46:32;0.88;;;0.55;;
63567;SDS011;49715;42.386;20.434;2023-01-10T01:49:03;1.27;;;0.70;;
63567;SDS011;49715;42.386;20.434;2023-01-10T01:51:39;1.25;;;0.70;;
63567;SDS011;49715;42.386;20.434;2023-01-10T01:54:06;0.98;;;0.57;;
63567;SDS011;49715;42.386;20.434;2023-01-10T01:56:41;1.20;;;0.60;;
63567;SDS011;49715;42.386;20.434;2023-01-10T01:59:22;1.33;;;0.50;;
63567;SDS011;49715;42.386;20.434;2023-01-10T02:01:59;1.42;;;0.40;;
63567;SDS011;49715;42.386;20.434;2023-01-10T02:04:37;1.00;;;0.50;;
63567;SDS011;49715;42.386;20.434;2023-01-10T02:07:10;0.90;;;0.50;;
63567;SDS011;49715;42.386;20.434;2023-01-10T02:12:08;1.15;;;0.70;;
63567;SDS011;49715;42.386;20.434;2023-01-10T02:14:36;1.15;;;0.60;;
63567;SDS011;49715;42.386;20.434;2023-01-10T02:17:03;0.73;;;0.50;;
63567;SDS011;49715;42.386;20.434;2023-01-10T02:36:01;0.43;;;0.40;;
63567;SDS011;49715;42.386;20.434;2023-01-10T02:38:37;0.30;;;0.30;;
63567;SDS011;49715;42.386;20.434;2023-01-10T02:43:45;0.35;;;0.35;;
63567;SDS011;49715;42.386;20.434;2023-01-10T02:46:21;1.43;;;0.83;;
63567;SDS011;49715;42.386;20.434;2023-01-10T02:48:54;2.88;;;1.38;;
63567;SDS011;49715;42.386;20.434;2023-01-10T02:51:21;1.90;;;1.13;;
63567;SDS011;49715;42.386;20.434;2023-01-10T02:54:01;1.90;;;1.20;;
63567;SDS011;49715;42.386;20.434;2023-01-10T02:59:38;2.97;;;0.90;;
63567;SDS011;49715;42.386;20.434;2023-01-10T03:07:59;4.38;;;1.80;;
63567;SDS011;49715;42.386;20.434;2023-01-10T03:15:45;2.83;;;0.90;;
63567;SDS011;49715;42.386;20.434;2023-01-10T03:18:16;1.85;;;0.90;;
63567;SDS011;49715;42.386;20.434;2023-01-10T03:20:48;1.92;;;0.85;;
63567;SDS011;49715;42.386;20.434;2023-01-10T03:23:17;2.03;;;0.90;;
63567;SDS011;49715;42.386;20.434;2023-01-10T03:25:47;1.92;;;0.70;;
63567;SDS011;49715;42.386;20.434;2023-01-10T03:28:22;2.95;;;0.80;;
63567;SDS011;49715;42.386;20.434;2023-01-10T03:31:13;2.25;;;0.60;;
63567;SDS011;49715;42.386;20.434;2023-01-10T03:33:46;2.60;;;0.77;;
63567;SDS011;49715;42.386;20.434;2023-01-10T03:36:21;4.20;;;0.80;;
63567;SDS011;49715;42.386;20.434;2023-01-10T03:38:56;2.15;;;0.73;;
63567;SDS011;49715;42.386;20.434;2023-01-10T03:41:53;1.48;;;0.70;;
63567;SDS011;49715;42.386;20.434;2023-01-10T03:44:26;1.95;;;0.93;;
63567;SDS011;49715;42.386;20.434;2023-01-10T03:50:03;2.65;;;1.30;;
63567;SDS011;49715;42.386;20.434;2023-01-10T03:52:33;3.13;;;1.58;;
63567;SDS011;49715;42.386;20.434;2023-01-10T03:55:00;3.80;;;1.65;;
63567;SDS011;49715;42.386;20.434;2023-01-10T03:57:28;3.20;;;1.70;;
63567;SDS011;49715;42.386;20.434;2023-01-10T03:59:55;3.13;;;1.87;;
63567;SDS011;49715;42.386;20.434;2023-01-10T04:02:24;3.25;;;1.30;;
63567;SDS011;49715;42.386;20.434;2023-01-10T04:04:53;2.25;;;0.90;;
63567;SDS011;49715;42.386;20.434;2023-01-10T04:07:19;1.30;;;0.90;;
63567;SDS011;49715;42.386;20.434;2023-01-10T04:09:46;0.95;;;0.60;;
63567;SDS011;49715;42.386;20.434;2023-01-10T04:12:12;2.28;;;0.90;;
63567;SDS011;49715;42.386;20.434;2023-01-10T04:14:39;1.30;;;0.77;;
63567;SDS011;49715;42.386;20.434;2023-01-10T04:17:05;1.00;;;0.70;;
63567;SDS011;49715;42.386;20.434;2023-01-10T04:19:32;2.55;;;0.90;;
63567;SDS011;49715;42.386;20.434;2023-01-10T04:21:58;1.42;;;0.95;;
63567;SDS011;49715;42.386;20.434;2023-01-10T04:24:25;2.07;;;1.00;;
63567;SDS011;49715;42.386;20.434;2023-01-10T04:26:51;1.47;;;1.03;;
63567;SDS011;49715;42.386;20.434;2023-01-10T04:29:17;1.83;;;0.80;;
63567;SDS011;49715;42.386;20.434;2023-01-10T04:31:44;1.20;;;0.80;;
63567;SDS011;49715;42.386;20.434;2023-01-10T04:34:10;1.20;;;0.63;;
63567;SDS011;49715;42.386;20.434;2023-01-10T04:36:37;0.98;;;0.43;;
63567;SDS011;49715;42.386;20.434;2023-01-10T04:39:03;1.27;;;0.63;;
63567;SDS011;49715;42.386;20.434;2023-01-10T04:41:30;0.85;;;0.50;;
63567;SDS011;49715;42.386;20.434;2023-01-10T04:43:56;0.80;;;0.68;;
63567;SDS011;49715;42.386;20.434;2023-01-10T04:46:23;0.83;;;0.60;;
63567;SDS011;49715;42.386;20.434;2023-01-10T04:48:49;1.00;;;0.53;;
63567;SDS011;49715;42.386;20.434;2023-01-10T04:51:16;1.77;;;0.80;;
63567;SDS011;49715;42.386;20.434;2023-01-10T04:53:42;1.77;;;0.77;;
63567;SDS011;49715;42.386;20.434;2023-01-10T04:56:09;2.90;;;1.10;;
63567;SDS011;49715;42.386;20.434;2023-01-10T04:58:42;2.85;;;0.90;;
63567;SDS011;49715;42.386;20.434;2023-01-10T05:01:12;1.60;;;0.73;;
63567;SDS011;49715;42.386;20.434;2023-01-10T05:03:40;4.13;;;0.90;;
63567;SDS011;49715;42.386;20.434;2023-01-10T05:06:07;2.10;;;1.00;;
63567;SDS011;49715;42.386;20.434;2023-01-10T05:08:34;1.65;;;0.95;;
63567;SDS011;49715;42.386;20.434;2023-01-10T05:11:01;1.92;;;0.70;;
63567;SDS011;49715;42.386;20.434;2023-01-10T05:13:27;1.10;;;0.60;;
63567;SDS011;49715;42.386;20.434;2023-01-10T05:15:54;2.57;;;0.97;;
63567;SDS011;49715;42.386;20.434;2023-01-10T05:18:23;1.98;;;0.80;;
63567;SDS011;49715;42.386;20.434;2023-01-10T05:23:16;2.38;;;0.55;;
63567;SDS011;49715;42.386;20.434;2023-01-10T05:25:43;1.35;;;0.65;;
63567;SDS011;49715;42.386;20.434;2023-01-10T05:28:09;2.65;;;0.80;;
63567;SDS011;49715;42.386;20.434;2023-01-10T05:30:36;1.53;;;0.70;;
63567;SDS011;49715;42.386;20.434;2023-01-10T05:33:03;1.98;;;0.70;;
63567;SDS011;49715;42.386;20.434;2023-01-10T05:35:29;3.28;;;0.70;;
63567;SDS011;49715;42.386;20.434;2023-01-10T05:37:56;1.93;;;0.60;;
63567;SDS011;49715;42.386;20.434;2023-01-10T05:40:22;3.97;;;1.07;;
63567;SDS011;49715;42.386;20.434;2023-01-10T05:42:48;5.03;;;2.20;;
63567;SDS011;49715;42.386;20.434;2023-01-10T05:45:15;3.23;;;1.47;;
63567;SDS011;49715;42.386;20.434;2023-01-10T05:47:41;4.10;;;1.83;;
63567;SDS011;49715;42.386;20.434;2023-01-10T05:50:08;4.07;;;1.30;;
63567;SDS011;49715;42.386;20.434;2023-01-10T05:52:35;2.60;;;1.45;;
63567;SDS011;49715;42.386;20.434;2023-01-10T05:55:01;4.73;;;1.27;;
63567;SDS011;49715;42.386;20.434;2023-01-10T05:57:28;3.47;;;1.35;;
63567;SDS011;49715;42.386;20.434;2023-01-10T05:59:54;2.57;;;1.57;;
63567;SDS011;49715;42.386;20.434;2023-01-10T06:02:20;2.27;;;1.43;;
63567;SDS011;49715;42.386;20.434;2023-01-10T06:04:48;4.82;;;2.20;;
63567;SDS011;49715;42.386;20.434;2023-01-10T06:07:14;4.72;;;2.05;;
63567;SDS011;49715;42.386;20.434;2023-01-10T06:09:41;5.70;;;1.80;;
63567;SDS011;49715;42.386;20.434;2023-01-10T06:12:07;3.53;;;1.80;;
63567;SDS011;49715;42.386;20.434;2023-01-10T06:14:34;4.60;;;2.23;;
63567;SDS011;49715;42.386;20.434;2023-01-10T06:17:00;5.83;;;1.93;;
63567;SDS011;49715;42.386;20.434;2023-01-10T06:19:27;5.57;;;1.20;;
63567;SDS011;49715;42.386;20.434;2023-01-10T06:21:53;3.90;;;1.83;;
63567;SDS011;49715;42.386;20.434;2023-01-10T06:24:20;5.53;;;1.70;;
63567;SDS011;49715;42.386;20.434;2023-01-10T06:26:46;6.30;;;2.63;;
63567;SDS011;49715;42.386;20.434;2023-01-10T06:29:13;9.40;;;4.40;;
63567;SDS011;49715;42.386;20.434;2023-01-10T06:31:39;6.28;;;2.20;;
63567;SDS011;49715;42.386;20.434;2023-01-10T06:34:06;5.57;;;2.10;;
63567;SDS011;49715;42.386;20.434;2023-01-10T06:36:32;6.53;;;2.90;;
63567;SDS011;49715;42.386;20.434;2023-01-10T06:38:59;7.47;;;2.27;;
63567;SDS011;49715;42.386;20.434;2023-01-10T06:41:25;4.38;;;1.35;;
63567;SDS011;49715;42.386;20.434;2023-01-10T06:43:52;3.50;;;1.30;;
63567;SDS011;49715;42.386;20.434;2023-01-10T06:48:46;4.53;;;1.42;;
63567;SDS011;49715;42.386;20.434;2023-01-10T06:51:13;6.07;;;2.38;;
63567;SDS011;49715;42.386;20.434;2023-01-10T06:53:45;7.75;;;2.42;;
63567;SDS011;49715;42.386;20.434;2023-01-10T06:56:12;6.00;;;3.22;;
63567;SDS011;49715;42.386;20.434;2023-01-10T06:58:39;6.10;;;3.55;;
63567;SDS011;49715;42.386;20.434;2023-01-10T07:01:12;9.77;;;5.05;;
63567;SDS011;49715;42.386;20.434;2023-01-10T07:03:40;14.07;;;7.68;;
63567;SDS011;49715;42.386;20.434;2023-01-10T07:06:07;11.15;;;6.50;;
63567;SDS011;49715;42.386;20.434;2023-01-10T07:08:37;10.88;;;5.32;;
63567;SDS011;49715;42.386;20.434;2023-01-10T07:11:05;9.60;;;4.57;;
63567;SDS011;49715;42.386;20.434;2023-01-10T07:13:33;6.70;;;3.03;;
63567;SDS011;49715;42.386;20.434;2023-01-10T07:16:04;5.03;;;1.80;;
63567;SDS011;49715;42.386;20.434;2023-01-10T07:18:36;3.83;;;2.58;;
63567;SDS011;49715;42.386;20.434;2023-01-10T07:21:05;17.75;;;11.32;;
63567;SDS011;49715;42.386;20.434;2023-01-10T07:23:31;15.20;;;7.50;;
63567;SDS011;49715;42.386;20.434;2023-01-10T07:26:01;10.07;;;5.22;;
63567;SDS011;49715;42.386;20.434;2023-01-10T07:28:31;4.38;;;2.33;;
63567;SDS011;49715;42.386;20.434;2023-01-10T07:31:00;5.47;;;2.42;;
63567;SDS011;49715;42.386;20.434;2023-01-10T07:33:28;5.68;;;3.70;;
63567;SDS011;49715;42.386;20.434;2023-01-10T07:35:56;3.38;;;2.00;;
63567;SDS011;49715;42.386;20.434;2023-01-10T07:40:49;4.22;;;1.50;;
63567;SDS011;49715;42.386;20.434;2023-01-10T07:43:16;4.45;;;1.67;;
63567;SDS011;49715;42.386;20.434;2023-01-10T07:45:43;4.75;;;1.45;;
63567;SDS011;49715;42.386;20.434;2023-01-10T07:48:11;4.90;;;1.60;;
63567;SDS011;49715;42.386;20.434;2023-01-10T07:50:38;6.03;;;1.80;;
63567;SDS011;49715;42.386;20.434;2023-01-10T07:53:05;7.63;;;3.88;;
63567;SDS011;49715;42.386;20.434;2023-01-10T07:55:34;48.50;;;30.75;;
63567;SDS011;49715;42.386;20.434;2023-01-10T07:58:04;26.30;;;14.93;;
63567;SDS011;49715;42.386;20.434;2023-01-10T08:00:33;20.10;;;10.00;;
63567;SDS011;49715;42.386;20.434;2023-01-10T08:03:00;25.25;;;14.90;;
63567;SDS011;49715;42.386;20.434;2023-01-10T08:05:28;22.75;;;12.82;;
63567;SDS011;49715;42.386;20.434;2023-01-10T08:07:55;16.58;;;9.73;;
63567;SDS011;49715;42.386;20.434;2023-01-10T08:10:25;74.65;;;45.28;;
63567;SDS011;49715;42.386;20.434;2023-01-10T08:12:53;25.90;;;15.80;;
63567;SDS011;49715;42.386;20.434;2023-01-10T08:15:20;23.02;;;13.52;;
63567;SDS011;49715;42.386;20.434;2023-01-10T08:17:46;23.83;;;13.80;;
63567;SDS011;49715;42.386;20.434;2023-01-10T08:20:13;8.85;;;5.80;;
63567;SDS011;49715;42.386;20.434;2023-01-10T08:22:40;12.93;;;6.45;;
63567;SDS011;49715;42.386;20.434;2023-01-10T08:25:07;11.43;;;6.82;;
63567;SDS011;49715;42.386;20.434;2023-01-10T08:30:00;14.18;;;7.90;;
63567;SDS011;49715;42.386;20.434;2023-01-10T08:32:27;10.57;;;6.20;;
63567;SDS011;49715;42.386;20.434;2023-01-10T08:34:53;6.40;;;3.20;;
63567;SDS011;49715;42.386;20.434;2023-01-10T08:37:20;4.57;;;1.33;;
63567;SDS011;49715;42.386;20.434;2023-01-10T08:39:46;5.50;;;2.75;;
63567;SDS011;49715;42.386;20.434;2023-01-10T08:42:13;8.95;;;4.30;;
63567;SDS011;49715;42.386;20.434;2023-01-10T08:44:42;3.65;;;1.52;;
63567;SDS011;49715;42.386;20.434;2023-01-10T08:47:10;3.95;;;1.80;;
63567;SDS011;49715;42.386;20.434;2023-01-10T08:49:36;4.85;;;1.70;;
63567;SDS011;49715;42.386;20.434;2023-01-10T08:52:03;7.78;;;5.53;;
63567;SDS011;49715;42.386;20.434;2023-01-10T08:54:31;9.75;;;5.80;;
63567;SDS011;49715;42.386;20.434;2023-01-10T08:56:58;7.43;;;3.50;;
63567;SDS011;49715;42.386;20.434;2023-01-10T08:59:24;5.10;;;3.30;;
63567;SDS011;49715;42.386;20.434;2023-01-10T09:01:51;12.90;;;8.30;;
63567;SDS011;49715;42.386;20.434;2023-01-10T09:04:17;12.30;;;7.78;;
63567;SDS011;49715;42.386;20.434;2023-01-10T09:06:44;25.20;;;16.17;;
63567;SDS011;49715;42.386;20.434;2023-01-10T09:09:10;7.00;;;3.47;;
63567;SDS011;49715;42.386;20.434;2023-01-10T09:11:37;7.78;;;4.47;;
63567;SDS011;49715;42.386;20.434;2023-01-10T09:14:03;4.90;;;2.65;;
63567;SDS011;49715;42.386;20.434;2023-01-10T09:16:32;4.80;;;3.03;;
63567;SDS011;49715;42.386;20.434;2023-01-10T09:18:59;1.83;;;1.40;;
63567;SDS011;49715;42.386;20.434;2023-01-10T09:21:26;2.22;;;1.30;;
63567;SDS011;49715;42.386;20.434;2023-01-10T09:23:54;3.63;;;1.63;;
63567;SDS011;49715;42.386;20.434;2023-01-10T09:26:22;3.85;;;1.95;;
63567;SDS011;49715;42.386;20.434;2023-01-10T09:28:48;8.57;;;5.22;;
63567;SDS011;49715;42.386;20.434;2023-01-10T09:31:15;5.88;;;4.00;;
63567;SDS011;49715;42.386;20.434;2023-01-10T09:33:42;3.97;;;2.60;;
63567;SDS011;49715;42.386;20.434;2023-01-10T09:36:09;5.30;;;3.08;;
63567;SDS011;49715;42.386;20.434;2023-01-10T09:38:38;7.03;;;2.58;;
63567;SDS011;49715;42.386;20.434;2023-01-10T09:44:17;5.90;;;3.17;;
63567;SDS011;49715;42.386;20.434;2023-01-10T09:52:49;3.05;;;1.90;;
63567;SDS011;49715;42.386;20.434;2023-01-10T09:55:22;2.92;;;2.15;;
63567;SDS011;49715;42.386;20.434;2023-01-10T09:57:52;3.53;;;2.08;;
63567;SDS011;49715;42.386;20.434;2023-01-10T10:00:23;4.75;;;2.85;;
63567;SDS011;49715;42.386;20.434;2023-01-10T10:02:59;4.13;;;2.53;;
63567;SDS011;49715;42.386;20.434;2023-01-10T10:05:27;3.80;;;2.40;;
63567;SDS011;49715;42.386;20.434;2023-01-10T10:08:00;2.30;;;1.63;;
63567;SDS011;49715;42.386;20.434;2023-01-10T10:27:01;3.50;;;2.50;;
63567;SDS011;49715;42.386;20.434;2023-01-10T10:32:29;4.35;;;3.40;;
63567;SDS011;49715;42.386;20.434;2023-01-10T10:35:35;4.90;;;2.92;;
63567;SDS011;49715;42.386;20.434;2023-01-10T10:38:09;6.13;;;4.22;;
63567;SDS011;49715;42.386;20.434;2023-01-10T10:40:40;7.07;;;4.75;;
63567;SDS011;49715;42.386;20.434;2023-01-10T10:43:11;3.65;;;2.15;;
63567;SDS011;49715;42.386;20.434;2023-01-10T10:45:45;4.60;;;2.90;;
63567;SDS011;49715;42.386;20.434;2023-01-10T10:48:24;4.80;;;3.20;;
63567;SDS011;49715;42.386;20.434;2023-01-10T10:53:27;7.38;;;3.10;;
63567;SDS011;49715;42.386;20.434;2023-01-10T10:55:56;8.70;;;5.35;;
63567;SDS011;49715;42.386;20.434;2023-01-10T10:58:23;5.05;;;3.30;;
63567;SDS011;49715;42.386;20.434;2023-01-10T11:00:51;4.68;;;3.50;;
63567;SDS011;49715;42.386;20.434;2023-01-10T11:03:29;4.38;;;2.80;;
63567;SDS011;49715;42.386;20.434;2023-01-10T11:06:13;4.43;;;3.35;;
63567;SDS011;49715;42.386;20.434;2023-01-10T11:08:43;5.07;;;3.55;;
63567;SDS011;49715;42.386;20.434;2023-01-10T11:13:46;6.38;;;3.92;;
63567;SDS011;49715;42.386;20.434;2023-01-10T11:16:22;5.28;;;3.95;;
63567;SDS011;49715;42.386;20.434;2023-01-10T11:19:07;5.20;;;3.35;;
63567;SDS011;49715;42.386;20.434;2023-01-10T11:21:35;4.18;;;2.83;;
63567;SDS011;49715;42.386;20.434;2023-01-10T11:24:17;4.18;;;2.60;;
63567;SDS011;49715;42.386;20.434;2023-01-10T11:27:12;7.15;;;4.32;;
63567;SDS011;49715;42.386;20.434;2023-01-10T11:29:46;5.45;;;3.88;;
63567;SDS011;49715;42.386;20.434;2023-01-10T11:32:18;8.93;;;6.07;;
63567;SDS011;49715;42.386;20.434;2023-01-10T11:34:49;6.13;;;3.90;;
63567;SDS011;49715;42.386;20.434;2023-01-10T11:37:20;9.75;;;6.20;;
63567;SDS011;49715;42.386;20.434;2023-01-10T11:42:34;9.73;;;6.30;;
63567;SDS011;49715;42.386;20.434;2023-01-10T11:45:20;11.45;;;8.13;;
63567;SDS011;49715;42.386;20.434;2023-01-10T11:47:50;11.38;;;6.85;;
63567;SDS011;49715;42.386;20.434;2023-01-10T11:50:21;10.00;;;6.55;;
63567;SDS011;49715;42.386;20.434;2023-01-10T11:52:53;6.63;;;3.60;;
63567;SDS011;49715;42.386;20.434;2023-01-10T11:55:26;6.00;;;4.47;;
63567;SDS011;49715;42.386;20.434;2023-01-10T11:58:03;10.73;;;6.63;;
63567;SDS011;49715;42.386;20.434;2023-01-10T12:00:43;6.68;;;4.65;;
63567;SDS011;49715;42.386;20.434;2023-01-10T12:03:18;7.15;;;4.13;;
63567;SDS011;49715;42.386;20.434;2023-01-10T12:05:50;6.60;;;3.83;;
63567;SDS011;49715;42.386;20.434;2023-01-10T12:08:27;6.65;;;3.38;;
63567;SDS011;49715;42.386;20.434;2023-01-10T12:11:02;7.78;;;4.03;;
63567;SDS011;49715;42.386;20.434;2023-01-10T12:13:47;3.50;;;2.35;;
63567;SDS011;49715;42.386;20.434;2023-01-10T12:19:06;7.43;;;4.20;;
63567;SDS011;49715;42.386;20.434;2023-01-10T12:21:40;3.85;;;2.80;;
63567;SDS011;49715;42.386;20.434;2023-01-10T12:26:55;4.80;;;3.17;;
63567;SDS011;49715;42.386;20.434;2023-01-10T12:29:23;5.47;;;3.80;;
63567;SDS011;49715;42.386;20.434;2023-01-10T12:32:03;4.07;;;2.60;;
63567;SDS011;49715;42.386;20.434;2023-01-10T12:34:42;2.65;;;1.95;;
63567;SDS011;49715;42.386;20.434;2023-01-10T12:39:58;8.68;;;5.95;;
63567;SDS011;49715;42.386;20.434;2023-01-10T12:42:50;4.18;;;2.05;;
63567;SDS011;49715;42.386;20.434;2023-01-10T12:45:40;3.60;;;1.58;;
63567;SDS011;49715;42.386;20.434;2023-01-10T12:48:20;5.13;;;3.50;;
63567;SDS011;49715;42.386;20.434;2023-01-10T12:51:06;4.18;;;3.17;;
63567;SDS011;49715;42.386;20.434;2023-01-10T12:53:49;6.40;;;4.38;;
63567;SDS011;49715;42.386;20.434;2023-01-10T12:56:20;4.35;;;2.63;;
63567;SDS011;49715;42.386;20.434;2023-01-10T12:59:10;4.50;;;3.47;;
63567;SDS011;49715;42.386;20.434;2023-01-10T13:01:48;4.95;;;2.95;;
63567;SDS011;49715;42.386;20.434;2023-01-10T13:04:20;7.38;;;4.10;;
63567;SDS011;49715;42.386;20.434;2023-01-10T13:06:49;6.53;;;3.75;;
63567;SDS011;49715;42.386;20.434;2023-01-10T13:09:23;8.60;;;5.20;;
63567;SDS011;49715;42.386;20.434;2023-01-10T13:14:19;8.70;;;6.18;;
63567;SDS011;49715;42.386;20.434;2023-01-10T13:17:03;9.82;;;6.00;;
63567;SDS011;49715;42.386;20.434;2023-01-10T13:22:43;8.68;;;5.47;;
63567;SDS011;49715;42.386;20.434;2023-01-10T13:25:19;6.55;;;4.90;;
63567;SDS011;49715;42.386;20.434;2023-01-10T13:28:00;6.55;;;4.30;;
63567;SDS011;49715;42.386;20.434;2023-01-10T13:30:36;11.93;;;7.97;;
63567;SDS011;49715;42.386;20.434;2023-01-10T13:35:48;3.45;;;1.98;;
63567;SDS011;49715;42.386;20.434;2023-01-10T13:38:21;3.17;;;2.00;;
63567;SDS011;49715;42.386;20.434;2023-01-10T13:41:14;4.95;;;3.80;;
63567;SDS011;49715;42.386;20.434;2023-01-10T13:44:01;5.32;;;3.55;;
63567;SDS011;49715;42.386;20.434;2023-01-10T13:46:41;2.53;;;1.90;;
63567;SDS011;49715;42.386;20.434;2023-01-10T13:51:39;1.42;;;0.90;;
63567;SDS011;49715;42.386;20.434;2023-01-10T13:54:57;1.95;;;1.30;;
63567;SDS011;49715;42.386;20.434;2023-01-10T14:00:52;4.03;;;1.35;;
63567;SDS011;49715;42.386;20.434;2023-01-10T14:03:41;2.97;;;2.20;;
63567;SDS011;49715;42.386;20.434;2023-01-10T14:09:30;4.35;;;2.08;;
63567;SDS011;49715;42.386;20.434;2023-01-10T14:12:00;4.38;;;2.10;;
63567;SDS011;49715;42.386;20.434;2023-01-10T14:14:35;2.75;;;1.80;;
63567;SDS011;49715;42.386;20.434;2023-01-10T14:17:20;1.80;;;1.20;;
63567;SDS011;49715;42.386;20.434;2023-01-10T14:19:56;2.70;;;1.10;;
63567;SDS011;49715;42.386;20.434;2023-01-10T14:22:36;1.40;;;1.17;;
63567;SDS011;49715;42.386;20.434;2023-01-10T14:25:16;3.53;;;1.08;;
63567;SDS011;49715;42.386;20.434;2023-01-10T14:27:48;2.28;;;0.80;;
63567;SDS011;49715;42.386;20.434;2023-01-10T14:30:21;1.67;;;0.82;;
63567;SDS011;49715;42.386;20.434;2023-01-10T14:32:53;1.40;;;0.80;;
63567;SDS011;49715;42.386;20.434;2023-01-10T14:35:23;1.80;;;0.75;;
63567;SDS011;49715;42.386;20.434;2023-01-10T14:38:01;0.80;;;0.70;;
63567;SDS011;49715;42.386;20.434;2023-01-10T14:41:04;0.60;;;0.60;;
63567;SDS011;49715;42.386;20.434;2023-01-10T14:43:53;1.90;;;1.05;;
63567;SDS011;49715;42.386;20.434;2023-01-10T14:46:31;1.67;;;1.30;;
63567;SDS011;49715;42.386;20.434;2023-01-10T14:49:26;3.20;;;1.90;;
63567;SDS011;49715;42.386;20.434;2023-01-10T14:52:12;2.00;;;1.27;;
63567;SDS011;49715;42.386;20.434;2023-01-10T14:54:50;2.75;;;1.77;;
63567;SDS011;49715;42.386;20.434;2023-01-10T14:58:00;6.43;;;2.78;;
63567;SDS011;49715;42.386;20.434;2023-01-10T15:00:31;10.60;;;6.22;;
63567;SDS011;49715;42.386;20.434;2023-01-10T15:03:00;11.50;;;8.30;;
63567;SDS011;49715;42.386;20.434;2023-01-10T15:05:32;14.60;;;11.02;;
63567;SDS011;49715;42.386;20.434;2023-01-10T15:10:45;16.92;;;10.82;;
63567;SDS011;49715;42.386;20.434;2023-01-10T15:13:16;13.63;;;10.85;;
63567;SDS011;49715;42.386;20.434;2023-01-10T15:15:45;10.85;;;8.48;;
63567;SDS011;49715;42.386;20.434;2023-01-10T15:18:21;13.95;;;10.45;;
63567;SDS011;49715;42.386;20.434;2023-01-10T15:20:58;18.23;;;12.32;;
63567;SDS011;49715;42.386;20.434;2023-01-10T15:23:34;19.00;;;11.02;;
63567;SDS011;49715;42.386;20.434;2023-01-10T15:26:19;11.65;;;7.63;;
63567;SDS011;49715;42.386;20.434;2023-01-10T15:29:04;6.72;;;4.65;;
63567;SDS011;49715;42.386;20.434;2023-01-10T15:31:34;7.22;;;4.38;;
63567;SDS011;49715;42.386;20.434;2023-01-10T15:34:05;6.38;;;4.40;;
63567;SDS011;49715;42.386;20.434;2023-01-10T15:36:34;7.63;;;3.78;;
63567;SDS011;49715;42.386;20.434;2023-01-10T15:39:01;5.57;;;3.30;;
63567;SDS011;49715;42.386;20.434;2023-01-10T15:41:27;4.45;;;2.50;;
63567;SDS011;49715;42.386;20.434;2023-01-10T15:43:54;5.32;;;2.92;;
63567;SDS011;49715;42.386;20.434;2023-01-10T15:46:59;2.92;;;2.13;;
63567;SDS011;49715;42.386;20.434;2023-01-10T15:49:26;4.03;;;2.80;;
63567;SDS011;49715;42.386;20.434;2023-01-10T15:51:53;4.90;;;3.15;;
63567;SDS011;49715;42.386;20.434;2023-01-10T15:59:30;5.38;;;3.38;;
63567;SDS011;49715;42.386;20.434;2023-01-10T16:04:40;3.92;;;2.47;;
63567;SDS011;49715;42.386;20.434;2023-01-10T16:09:55;5.38;;;3.05;;
63567;SDS011;49715;42.386;20.434;2023-01-10T16:12:34;5.45;;;2.30;;
63567;SDS011;49715;42.386;20.434;2023-01-10T16:15:27;4.60;;;2.92;;
63567;SDS011;49715;42.386;20.434;2023-01-10T16:18:00;5.15;;;3.10;;
63567;SDS011;49715;42.386;20.434;2023-01-10T16:20:29;4.35;;;2.72;;
63567;SDS011;49715;42.386;20.434;2023-01-10T16:22:57;5.00;;;3.10;;
63567;SDS011;49715;42.386;20.434;2023-01-10T16:25:31;3.35;;;2.03;;
63567;SDS011;49715;42.386;20.434;2023-01-10T16:28:00;3.03;;;2.00;;
63567;SDS011;49715;42.386;20.434;2023-01-10T16:30:33;4.50;;;2.33;;
63567;SDS011;49715;42.386;20.434;2023-01-10T16:33:10;3.97;;;2.28;;
63567;SDS011;49715;42.386;20.434;2023-01-10T16:35:41;3.05;;;2.13;;
63567;SDS011;49715;42.386;20.434;2023-01-10T16:38:11;3.92;;;2.50;;
63567;SDS011;49715;42.386;20.434;2023-01-10T16:40:40;4.65;;;2.40;;
63567;SDS011;49715;42.386;20.434;2023-01-10T16:43:08;4.68;;;3.30;;
63567;SDS011;49715;42.386;20.434;2023-01-10T16:48:18;7.90;;;4.65;;
63567;SDS011;49715;42.386;20.434;2023-01-10T16:50:45;6.07;;;4.57;;
63567;SDS011;49715;42.386;20.434;2023-01-10T16:53:13;5.55;;;4.40;;
63567;SDS011;49715;42.386;20.434;2023-01-10T16:58:12;5.43;;;4.32;;
63567;SDS011;49715;42.386;20.434;2023-01-10T17:00:41;5.53;;;3.30;;
63567;SDS011;49715;42.386;20.434;2023-01-10T17:03:16;4.95;;;3.30;;
63567;SDS011;49715;42.386;20.434;2023-01-10T17:05:46;4.15;;;3.00;;
63567;SDS011;49715;42.386;20.434;2023-01-10T17:08:17;5.03;;;3.63;;